createdAt,value
2019-03-18T00:00:43.153Z,3.57
2019-03-18T00:03:15.113Z,4.40
2019-03-18T00:05:46.692Z,6.43
2019-03-18T00:08:20.141Z,3.50
2019-03-18T00:10:51.791Z,2.63
2019-03-18T00:13:23.480Z,3.37
2019-03-18T00:15:58.107Z,2.77
2019-03-18T00:18:30.182Z,1.87
2019-03-18T00:21:01.843Z,2.07
2019-03-18T00:23:33.552Z,4.20
2019-03-18T00:26:05.995Z,3.20
2019-03-18T00:28:38.032Z,2.00
2019-03-18T00:31:15.733Z,3.13
2019-03-18T00:33:47.543Z,2.43
2019-03-18T00:36:19.262Z,2.03
2019-03-18T00:38:51.292Z,3.40
2019-03-18T00:41:22.902Z,1.63
2019-03-18T00:43:54.552Z,2.87
2019-03-18T00:46:26.412Z,3.07
2019-03-18T00:48:58.253Z,1.90
2019-03-18T00:51:29.872Z,2.30
2019-03-18T00:54:01.951Z,3.50
2019-03-18T00:56:34.197Z,2.33
2019-03-18T00:59:06.033Z,2.63
2019-03-18T01:01:37.621Z,2.07
2019-03-18T01:04:09.312Z,2.10
2019-03-18T01:06:40.992Z,1.40
2019-03-18T01:09:13.112Z,5.00
2019-03-18T01:11:45.151Z,1.60
2019-03-18T01:14:16.942Z,1.50
2019-03-18T01:16:48.602Z,2.63
2019-03-18T01:19:20.572Z,4.93
2019-03-18T01:21:52.180Z,2.90
2019-03-18T01:24:23.872Z,1.43
2019-03-18T01:26:57.040Z,2.37
2019-03-18T01:29:29.112Z,2.53
2019-03-18T01:32:07.864Z,2.40
2019-03-18T01:34:39.712Z,2.77
2019-03-18T01:37:11.432Z,1.73
2019-03-18T01:39:43.582Z,2.17
2019-03-18T01:42:21.232Z,2.03
2019-03-18T01:44:53.402Z,4.50
2019-03-18T01:47:25.126Z,1.33
2019-03-18T01:49:56.872Z,1.80
2019-03-18T01:52:28.572Z,4.53
2019-03-18T01:55:00.633Z,2.57
2019-03-18T01:57:32.960Z,7.27
2019-03-18T02:00:06.532Z,2.70
2019-03-18T02:02:38.118Z,1.90
2019-03-18T02:05:10.812Z,1.50
2019-03-18T02:07:42.455Z,3.40
2019-03-18T02:10:14.801Z,2.10
2019-03-18T02:12:46.513Z,3.63
2019-03-18T02:15:18.282Z,2.93
2019-03-18T02:17:49.971Z,2.93
2019-03-18T02:20:21.742Z,2.50
2019-03-18T02:22:53.342Z,2.23
2019-03-18T02:25:25.201Z,2.73
2019-03-18T02:27:57.072Z,2.60
2019-03-18T02:30:29.121Z,2.53
2019-03-18T02:33:06.822Z,2.40
2019-03-18T02:35:38.503Z,2.40
2019-03-18T02:38:10.103Z,4.90
2019-03-18T02:40:41.801Z,5.60
2019-03-18T02:43:13.473Z,6.00
2019-03-18T02:45:45.277Z,6.13
2019-03-18T02:48:16.912Z,8.27
2019-03-18T02:50:48.684Z,10.40
2019-03-18T02:53:20.502Z,7.20
2019-03-18T02:55:52.194Z,7.07
2019-03-18T02:58:24.543Z,6.03
2019-03-18T03:00:56.313Z,9.40
2019-03-18T03:03:28.033Z,7.80
2019-03-18T03:05:59.713Z,7.60
2019-03-18T03:08:31.313Z,6.47
2019-03-18T03:11:02.984Z,5.87
2019-03-18T03:13:34.689Z,5.03
2019-03-18T03:16:06.825Z,4.93
2019-03-18T03:18:38.614Z,7.87
2019-03-18T03:21:10.273Z,7.17
2019-03-18T03:23:41.886Z,5.07
2019-03-18T03:26:13.972Z,4.27
2019-03-18T03:28:46.362Z,5.20
2019-03-18T03:31:18.092Z,3.90
2019-03-18T03:33:50.933Z,8.50
2019-03-18T03:36:22.756Z,5.03
2019-03-18T03:38:54.473Z,4.83
2019-03-18T03:41:26.563Z,4.20
2019-03-18T03:43:58.212Z,4.20
2019-03-18T03:46:42.304Z,5.53
2019-03-18T03:49:03.393Z,6.93
2019-03-18T03:51:35.172Z,4.93
2019-03-18T03:54:06.751Z,5.80
2019-03-18T03:56:38.553Z,10.60
2019-03-18T03:59:10.893Z,5.43
2019-03-18T04:01:42.592Z,7.10
2019-03-18T04:04:14.295Z,5.23
2019-03-18T04:06:45.919Z,6.63
2019-03-18T04:09:17.552Z,5.77
2019-03-18T04:11:49.752Z,6.40
2019-03-18T04:14:21.387Z,6.93
2019-03-18T04:17:01.751Z,7.07
2019-03-18T04:19:27.733Z,9.73
2019-03-18T04:21:59.424Z,7.83
2019-03-18T04:24:33.122Z,8.27
2019-03-18T04:27:04.863Z,9.93
2019-03-18T04:29:37.192Z,9.30
2019-03-18T04:32:08.971Z,10.17
2019-03-18T04:34:41.312Z,9.57
2019-03-18T04:37:13.392Z,10.40
2019-03-18T04:39:44.998Z,9.20
2019-03-18T04:42:16.871Z,8.53
2019-03-18T04:44:48.612Z,10.40
2019-03-18T04:47:20.918Z,8.90
2019-03-18T04:49:52.574Z,6.97
2019-03-18T04:52:24.425Z,6.53
2019-03-18T04:54:56.091Z,8.27
2019-03-18T04:57:28.092Z,10.53
2019-03-18T05:00:00.134Z,9.43
2019-03-18T05:02:32.454Z,14.67
2019-03-18T05:05:04.192Z,11.03
2019-03-18T05:07:35.982Z,8.77
2019-03-18T05:10:08.424Z,8.50
2019-03-18T05:12:41.373Z,9.80
2019-03-18T05:15:13.122Z,12.83
2019-03-18T05:17:45.031Z,10.37
2019-03-18T05:20:16.812Z,13.33
2019-03-18T05:22:48.562Z,11.53
2019-03-18T05:25:20.200Z,11.07
2019-03-18T05:27:51.852Z,8.63
2019-03-18T05:30:23.862Z,11.03
2019-03-18T05:32:55.711Z,9.33
2019-03-18T05:35:27.452Z,9.80
2019-03-18T05:37:59.148Z,9.57
2019-03-18T05:40:30.812Z,9.47
2019-03-18T05:43:02.482Z,11.77
2019-03-18T05:45:34.067Z,10.67
2019-03-18T05:48:05.831Z,7.57
2019-03-18T05:50:37.543Z,10.23
2019-03-18T05:53:09.452Z,12.37
2019-03-18T05:55:41.152Z,10.10
2019-03-18T05:58:12.882Z,11.03
2019-03-18T06:00:45.373Z,10.60
2019-03-18T06:03:17.442Z,10.47
2019-03-18T06:05:50.342Z,9.77
2019-03-18T06:08:22.172Z,11.73
2019-03-18T06:10:56.232Z,8.90
2019-03-18T06:13:28.012Z,9.10
2019-03-18T06:15:59.655Z,9.87
2019-03-18T06:18:31.585Z,9.80
2019-03-18T06:21:03.302Z,9.37
2019-03-18T06:23:36.032Z,10.80
2019-03-18T06:26:07.814Z,8.33
2019-03-18T06:28:39.552Z,7.93
2019-03-18T06:31:11.553Z,8.83
2019-03-18T06:33:43.311Z,10.63
2019-03-18T06:36:20.852Z,12.93
2019-03-18T06:38:52.792Z,13.63
2019-03-18T06:41:24.471Z,8.27
2019-03-18T06:43:56.297Z,8.67
2019-03-18T06:46:27.973Z,10.53
2019-03-18T06:49:02.002Z,10.40
2019-03-18T06:51:35.113Z,9.63
2019-03-18T06:54:06.852Z,9.87
2019-03-18T06:56:38.459Z,8.77
2019-03-18T06:59:10.153Z,11.10
2019-03-18T07:01:42.131Z,12.13
2019-03-18T07:04:13.832Z,11.13
2019-03-18T07:06:45.422Z,8.13
2019-03-18T07:09:17.212Z,11.37
2019-03-18T07:11:48.972Z,9.63
2019-03-18T07:14:20.792Z,10.87
2019-03-18T07:16:52.372Z,9.03
2019-03-18T07:19:24.434Z,9.43
2019-03-18T07:21:56.163Z,10.20
2019-03-18T07:24:27.900Z,11.57
2019-03-18T07:26:59.472Z,10.50
2019-03-18T07:29:31.172Z,9.83
2019-03-18T07:32:03.452Z,7.63
2019-03-18T07:34:36.182Z,7.77
2019-03-18T07:37:09.252Z,9.00
2019-03-18T07:39:41.470Z,9.80
2019-03-18T07:42:13.132Z,9.53
2019-03-18T07:44:44.872Z,11.30
2019-03-18T07:47:16.551Z,9.10
2019-03-18T07:49:48.757Z,9.60
2019-03-18T07:52:21.885Z,9.37
2019-03-18T07:54:54.053Z,8.07
2019-03-18T07:57:26.750Z,9.60
2019-03-18T07:59:58.413Z,7.33
2019-03-18T08:02:30.362Z,8.50
2019-03-18T08:05:02.353Z,8.30
2019-03-18T08:07:34.072Z,7.90
2019-03-18T08:10:07.245Z,8.23
2019-03-18T08:12:38.812Z,8.53
2019-03-18T08:15:10.772Z,9.23
2019-03-18T08:17:42.372Z,7.67
2019-03-18T08:20:14.046Z,8.20
2019-03-18T08:22:45.652Z,9.53
2019-03-18T08:25:17.390Z,8.03
2019-03-18T08:27:49.112Z,8.43
2019-03-18T08:30:20.854Z,7.80
2019-03-18T08:32:52.832Z,10.20
2019-03-18T08:35:24.512Z,6.30
2019-03-18T08:38:02.094Z,6.83
2019-03-18T08:40:33.833Z,10.63
2019-03-18T08:43:05.412Z,9.20
2019-03-18T08:45:37.202Z,7.43
2019-03-18T08:48:08.852Z,8.80
2019-03-18T08:50:40.513Z,10.30
2019-03-18T08:53:21.302Z,7.20
2019-03-18T08:55:52.992Z,8.28
2019-03-18T08:58:24.745Z,9.23
2019-03-18T09:00:56.460Z,8.97
2019-03-18T09:03:28.435Z,8.63
2019-03-18T09:06:00.241Z,9.57
2019-03-18T09:08:31.935Z,6.30
2019-03-18T09:11:03.613Z,6.63
2019-03-18T09:13:35.332Z,4.80
2019-03-18T09:16:07.053Z,5.87
2019-03-18T09:18:38.675Z,7.60
2019-03-18T09:21:10.482Z,7.00
2019-03-18T09:23:42.143Z,5.37
2019-03-18T09:26:13.900Z,5.30
2019-03-18T09:28:46.572Z,7.10
2019-03-18T09:31:18.370Z,5.73
2019-03-18T09:33:50.432Z,3.60
2019-03-18T09:36:22.144Z,4.63
2019-03-18T09:39:00.512Z,6.07
2019-03-18T09:41:32.632Z,9.00
2019-03-18T09:44:04.272Z,5.73
2019-03-18T09:46:36.193Z,5.53
2019-03-18T09:49:20.646Z,7.13
2019-03-18T09:51:42.292Z,4.67
2019-03-18T09:54:13.928Z,8.93
2019-03-18T09:56:45.694Z,4.97
2019-03-18T09:59:17.292Z,6.67
2019-03-18T10:01:49.190Z,4.80
2019-03-18T10:04:21.282Z,8.80
2019-03-18T10:06:53.053Z,5.50
2019-03-18T10:09:24.642Z,5.97
2019-03-18T10:11:56.323Z,7.07
2019-03-18T10:14:27.912Z,5.63
2019-03-18T10:17:09.118Z,5.73
2019-03-18T10:19:33.891Z,6.20
2019-03-18T10:22:06.122Z,7.40
2019-03-18T10:24:37.792Z,5.90
2019-03-18T10:27:09.574Z,8.90
2019-03-18T10:29:41.260Z,6.10
2019-03-18T10:32:12.932Z,5.73
2019-03-18T10:34:45.062Z,7.70
2019-03-18T10:37:16.712Z,7.37
2019-03-18T10:39:52.202Z,9.90
2019-03-18T10:42:24.033Z,8.60
2019-03-18T10:44:55.662Z,6.13
2019-03-18T10:47:27.342Z,17.17
2019-03-18T10:49:59.072Z,75.23
2019-03-18T10:52:30.808Z,16.37
2019-03-18T10:55:08.909Z,13.37
2019-03-18T10:57:40.702Z,43.30
2019-03-18T11:00:13.063Z,55.73
2019-03-18T11:02:45.528Z,12.83
2019-03-18T11:05:17.814Z,54.27
2019-03-18T11:07:51.895Z,12.97
2019-03-18T11:10:23.342Z,6.27
2019-03-18T11:12:55.112Z,6.57
2019-03-18T11:15:26.702Z,29.13
2019-03-18T11:17:58.593Z,11.73
2019-03-18T11:20:30.512Z,10.67
2019-03-18T11:23:02.234Z,17.10
2019-03-18T11:25:33.882Z,90.87
2019-03-18T11:28:05.555Z,6.13
2019-03-18T11:30:37.422Z,17.10
2019-03-18T11:33:10.412Z,22.90
2019-03-18T11:35:42.597Z,19.53
2019-03-18T11:38:14.426Z,27.47
2019-03-18T11:40:52.022Z,15.83
2019-03-18T11:43:23.962Z,20.20
2019-03-18T11:45:55.623Z,6.23
2019-03-18T11:48:29.327Z,8.23
2019-03-18T11:51:00.992Z,5.53
2019-03-18T11:53:34.092Z,14.97
2019-03-18T11:56:05.762Z,7.63
2019-03-18T11:58:37.502Z,8.07
2019-03-18T12:01:09.112Z,28.77
2019-03-18T12:03:40.851Z,9.57
2019-03-18T12:06:13.032Z,18.00
2019-03-18T12:08:44.782Z,12.87
2019-03-18T12:11:16.349Z,9.13
2019-03-18T12:13:47.982Z,8.53
2019-03-18T12:16:19.652Z,11.63
2019-03-18T12:18:51.285Z,12.17
2019-03-18T12:21:22.885Z,7.93
2019-03-18T12:23:54.882Z,9.40
2019-03-18T12:26:26.672Z,5.87
2019-03-18T12:28:58.332Z,8.13
2019-03-18T12:31:29.917Z,6.27
2019-03-18T12:34:02.011Z,8.20
2019-03-18T12:36:34.083Z,6.00
2019-03-18T12:39:06.047Z,4.77
2019-03-18T12:41:43.586Z,5.00
2019-03-18T12:44:15.400Z,5.37
2019-03-18T12:46:47.043Z,6.23
2019-03-18T12:49:18.753Z,5.63
2019-03-18T12:51:50.482Z,6.33
2019-03-18T12:54:23.411Z,3.30
2019-03-18T12:56:55.112Z,7.87
2019-03-18T12:59:26.754Z,6.60
2019-03-18T13:01:58.412Z,6.47
2019-03-18T13:04:30.121Z,7.77
2019-03-18T13:07:02.243Z,5.67
2019-03-18T13:09:33.977Z,7.33
2019-03-18T13:12:05.731Z,7.13
2019-03-18T13:14:37.555Z,6.87
2019-03-18T13:17:09.182Z,5.57
2019-03-18T13:19:42.067Z,5.63
2019-03-18T13:22:13.732Z,6.20
2019-03-18T13:24:45.592Z,7.40
2019-03-18T13:27:17.315Z,5.67
2019-03-18T13:29:49.106Z,4.03
2019-03-18T13:32:20.773Z,4.20
2019-03-18T13:34:56.092Z,6.90
2019-03-18T13:37:28.092Z,5.90
2019-03-18T13:39:59.783Z,10.00
2019-03-18T13:42:32.782Z,4.03
2019-03-18T13:45:06.458Z,3.50
2019-03-18T13:47:38.002Z,4.03
2019-03-18T13:50:14.507Z,3.53
2019-03-18T13:52:46.141Z,3.03
2019-03-18T13:55:17.930Z,2.83
2019-03-18T13:57:49.522Z,4.80
2019-03-18T14:00:21.364Z,5.97
2019-03-18T14:02:52.979Z,6.57
2019-03-18T14:05:24.914Z,4.23
2019-03-18T14:08:00.718Z,3.43
2019-03-18T14:10:34.323Z,6.77
2019-03-18T14:13:06.044Z,5.93
2019-03-18T14:15:44.220Z,6.83
2019-03-18T14:18:15.847Z,4.77
2019-03-18T14:20:47.545Z,5.60
2019-03-18T14:23:19.083Z,5.93
2019-03-18T14:25:50.773Z,4.83
2019-03-18T14:28:22.588Z,5.87
2019-03-18T14:30:54.392Z,6.10
2019-03-18T14:33:26.042Z,4.50
2019-03-18T14:35:58.003Z,4.67
2019-03-18T14:38:29.965Z,5.80
2019-03-18T14:41:01.897Z,4.37
2019-03-18T14:43:33.638Z,7.03
2019-03-18T14:46:05.407Z,4.00
2019-03-18T14:48:39.022Z,5.60
2019-03-18T14:51:11.554Z,4.60
2019-03-18T14:53:43.156Z,6.47
2019-03-18T14:56:14.983Z,6.43
2019-03-18T14:58:46.732Z,5.33
2019-03-18T15:01:18.999Z,3.90
2019-03-18T15:03:50.663Z,5.63
2019-03-18T15:06:22.348Z,5.57
2019-03-18T15:08:54.288Z,8.20
2019-03-18T15:11:26.113Z,3.63
2019-03-18T15:13:57.773Z,3.43
2019-03-18T15:16:30.303Z,6.47
2019-03-18T15:19:01.913Z,2.93
2019-03-18T15:21:33.873Z,5.73
2019-03-18T15:24:16.526Z,4.53
2019-03-18T15:26:39.114Z,4.97
2019-03-18T15:29:10.852Z,3.13
2019-03-18T15:31:42.593Z,6.90
2019-03-18T15:34:14.393Z,5.07
2019-03-18T15:36:46.203Z,5.90
2019-03-18T15:39:18.286Z,4.50
2019-03-18T15:41:49.946Z,3.83
2019-03-18T15:44:21.613Z,4.97
2019-03-18T15:46:53.335Z,5.70
2019-03-18T15:49:24.923Z,6.37
2019-03-18T15:51:56.633Z,6.00
2019-03-18T15:54:28.292Z,3.57
2019-03-18T15:57:00.393Z,5.80
2019-03-18T15:59:32.169Z,5.80
2019-03-18T16:02:04.217Z,5.63
2019-03-18T16:04:36.786Z,5.53
2019-03-18T16:07:08.975Z,6.07
2019-03-18T16:09:40.980Z,4.03
2019-03-18T16:12:12.773Z,4.90
2019-03-18T16:14:44.632Z,5.97
2019-03-18T16:17:17.855Z,5.63
2019-03-18T16:19:49.587Z,2.93
2019-03-18T16:22:23.785Z,6.97
2019-03-18T16:24:54.793Z,5.83
2019-03-18T16:27:26.931Z,4.23
2019-03-18T16:29:59.122Z,5.00
2019-03-18T16:32:30.897Z,5.07
2019-03-18T16:35:02.591Z,6.23
2019-03-18T16:37:34.375Z,5.03
2019-03-18T16:40:08.223Z,6.00
2019-03-18T16:42:40.193Z,4.33
2019-03-18T16:45:13.702Z,7.43
2019-03-18T16:47:45.423Z,4.97
2019-03-18T16:50:28.413Z,4.20
2019-03-18T16:53:00.186Z,3.90
2019-03-18T16:55:32.374Z,5.43
2019-03-18T16:58:04.472Z,6.03
2019-03-18T17:00:37.395Z,6.10
2019-03-18T17:03:09.223Z,5.57
2019-03-18T17:05:40.872Z,7.90
2019-03-18T17:08:13.053Z,6.53
2019-03-18T17:10:45.034Z,5.03
2019-03-18T17:13:20.633Z,10.27
2019-03-18T17:15:52.353Z,8.47
2019-03-18T17:18:30.421Z,8.03
2019-03-18T17:21:02.065Z,6.77
2019-03-18T17:23:33.893Z,7.93
2019-03-18T17:26:05.554Z,6.37
2019-03-18T17:28:37.672Z,6.10
2019-03-18T17:31:09.392Z,5.50
2019-03-18T17:33:41.282Z,6.83
2019-03-18T17:36:13.059Z,7.20
2019-03-18T17:38:44.849Z,7.87
2019-03-18T17:41:17.512Z,9.87
2019-03-18T17:43:49.312Z,11.50
2019-03-18T17:46:23.931Z,8.00
2019-03-18T17:48:59.653Z,11.37
2019-03-18T17:51:33.428Z,9.17
2019-03-18T17:54:06.022Z,13.70
2019-03-18T17:56:38.663Z,17.73
2019-03-18T17:59:10.843Z,22.70
2019-03-18T18:01:46.622Z,17.97
2019-03-18T18:04:18.599Z,21.83
2019-03-18T18:06:50.322Z,21.57
2019-03-18T18:09:22.097Z,21.30
2019-03-18T18:12:04.204Z,22.23
2019-03-18T18:14:35.932Z,13.10
2019-03-18T18:17:13.572Z,20.20
2019-03-18T18:19:50.612Z,18.23
2019-03-18T18:22:22.262Z,18.67
2019-03-18T18:24:54.097Z,20.23
2019-03-18T18:27:25.796Z,12.13
2019-03-18T18:29:57.512Z,12.90
2019-03-18T18:32:29.152Z,15.50
2019-03-18T18:35:01.220Z,16.83
2019-03-18T18:37:33.912Z,14.77
2019-03-18T18:40:07.380Z,21.20
2019-03-18T18:42:39.422Z,15.07
2019-03-18T18:45:12.697Z,19.17
2019-03-18T18:47:44.302Z,14.87
2019-03-18T18:50:15.991Z,17.73
2019-03-18T18:52:47.844Z,14.97
2019-03-18T18:55:19.916Z,19.93
2019-03-18T18:57:51.662Z,19.07
2019-03-18T19:00:23.332Z,15.57
2019-03-18T19:02:54.953Z,19.87
2019-03-18T19:05:32.643Z,19.90
2019-03-18T19:08:07.213Z,22.32
2019-03-18T19:10:39.002Z,24.97
2019-03-18T19:13:11.212Z,27.97
2019-03-18T19:15:43.121Z,23.73
2019-03-18T19:18:14.833Z,27.77
2019-03-18T19:20:49.357Z,28.57
2019-03-18T19:23:20.992Z,24.40
2019-03-18T19:25:52.702Z,19.90
2019-03-18T19:28:30.426Z,21.27
2019-03-18T19:31:02.247Z,22.93
2019-03-18T19:33:33.952Z,19.07
2019-03-18T19:36:09.312Z,21.78
2019-03-18T19:38:41.052Z,22.60
2019-03-18T19:41:16.873Z,22.50
2019-03-18T19:43:48.932Z,24.07
2019-03-18T19:46:20.874Z,22.37
2019-03-18T19:48:52.770Z,21.93
2019-03-18T19:51:24.542Z,21.80
2019-03-18T19:53:56.113Z,28.13
2019-03-18T19:56:27.800Z,24.30
2019-03-18T19:58:59.512Z,20.17
2019-03-18T20:01:31.212Z,18.00
2019-03-18T20:04:08.792Z,15.93
2019-03-18T20:06:40.595Z,15.70
2019-03-18T20:09:12.340Z,17.50
2019-03-18T20:11:44.232Z,24.03
2019-03-18T20:14:16.472Z,21.50
2019-03-18T20:16:48.632Z,23.87
2019-03-18T20:19:20.362Z,26.57
2019-03-18T20:21:58.593Z,28.77
2019-03-18T20:24:30.322Z,28.10
2019-03-18T20:27:01.962Z,29.97
2019-03-18T20:29:33.613Z,21.37
2019-03-18T20:32:06.113Z,24.77
2019-03-18T20:34:37.752Z,20.63
2019-03-18T20:37:09.471Z,20.37
2019-03-18T20:39:41.173Z,18.63
2019-03-18T20:42:12.832Z,19.83
2019-03-18T20:44:46.043Z,16.83
2019-03-18T20:47:18.004Z,20.63
2019-03-18T20:49:49.612Z,17.20
2019-03-18T20:52:21.432Z,22.43
2019-03-18T20:54:53.102Z,14.17
2019-03-18T20:57:24.860Z,23.90
2019-03-18T20:59:56.512Z,18.97
2019-03-18T21:02:28.172Z,21.87
2019-03-18T21:04:59.813Z,19.07
2019-03-18T21:07:31.592Z,23.17
2019-03-18T21:10:04.262Z,22.33
2019-03-18T21:12:36.072Z,28.23
2019-03-18T21:15:09.072Z,30.77
2019-03-18T21:17:40.912Z,27.73
2019-03-18T21:20:14.343Z,29.63
2019-03-18T21:22:51.983Z,28.97
2019-03-18T21:25:23.571Z,48.13
2019-03-18T21:27:55.692Z,38.17
2019-03-18T21:30:27.354Z,27.87
2019-03-18T21:32:59.533Z,24.10
2019-03-18T21:35:31.192Z,24.30
2019-03-18T21:38:02.922Z,27.20
2019-03-18T21:40:34.512Z,20.40
2019-03-18T21:43:06.625Z,25.43
2019-03-18T21:45:39.040Z,21.73
2019-03-18T21:48:11.192Z,21.27
2019-03-18T21:50:42.805Z,17.70
2019-03-18T21:53:14.619Z,27.97
2019-03-18T21:55:49.411Z,21.80
2019-03-18T21:58:21.192Z,22.53
2019-03-18T22:00:52.900Z,22.20
2019-03-18T22:03:24.732Z,22.70
2019-03-18T22:05:56.352Z,21.73
2019-03-18T22:08:28.412Z,17.77
2019-03-18T22:11:01.082Z,21.57
2019-03-18T22:13:32.792Z,22.30
2019-03-18T22:16:04.919Z,19.37
2019-03-18T22:18:36.802Z,20.37
2019-03-18T22:21:08.560Z,17.70
2019-03-18T22:23:40.622Z,20.40
2019-03-18T22:26:12.353Z,19.50
2019-03-18T22:28:44.762Z,20.57
2019-03-18T22:31:16.652Z,17.73
2019-03-18T22:33:48.492Z,16.80
2019-03-18T22:36:20.255Z,19.57
2019-03-18T22:38:51.972Z,17.50
2019-03-18T22:41:23.772Z,17.53
2019-03-18T22:43:55.520Z,16.60
2019-03-18T22:46:27.692Z,12.10
2019-03-18T22:48:59.670Z,19.63
2019-03-18T22:51:31.432Z,17.83
2019-03-18T22:54:03.392Z,19.57
2019-03-18T22:56:35.129Z,21.77
2019-03-18T22:59:08.854Z,15.33
2019-03-18T23:01:40.772Z,18.60
2019-03-18T23:04:12.693Z,16.03
2019-03-18T23:06:46.432Z,17.73
2019-03-18T23:09:18.353Z,21.50
2019-03-18T23:11:50.127Z,22.57
2019-03-18T23:14:21.792Z,16.90
2019-03-18T23:16:54.242Z,19.47
2019-03-18T23:19:26.294Z,18.33
2019-03-18T23:21:58.062Z,21.17
2019-03-18T23:24:30.760Z,20.00
2019-03-18T23:27:02.583Z,18.47
2019-03-18T23:29:34.295Z,18.63
2019-03-18T23:32:06.114Z,19.67
2019-03-18T23:34:38.012Z,20.37
2019-03-18T23:37:09.732Z,18.93
2019-03-18T23:39:41.672Z,20.67
2019-03-18T23:42:13.453Z,16.50
2019-03-18T23:44:45.491Z,19.50
2019-03-18T23:47:17.790Z,28.17
2019-03-18T23:49:49.903Z,23.60
2019-03-18T23:52:21.552Z,23.70
2019-03-18T23:54:54.412Z,22.77
2019-03-18T23:57:26.072Z,22.73
2019-03-18T23:59:57.860Z,18.47
